createdAt,value
2019-04-20T00:00:54.207Z,72.90
2019-04-20T00:03:23.652Z,73.10
2019-04-20T00:06:09.350Z,73.00
2019-04-20T00:08:41.057Z,72.60
2019-04-20T00:11:17.673Z,72.10
2019-04-20T00:13:48.861Z,71.90
2019-04-20T00:16:08.527Z,72.10
2019-04-20T00:18:42.981Z,72.40
2019-04-20T00:21:25.007Z,72.70
2019-04-20T00:23:54.802Z,73.30
2019-04-20T00:27:01.999Z,73.80
2019-04-20T00:29:17.662Z,74.30
2019-04-20T00:31:44.588Z,74.60
2019-04-20T00:34:06.688Z,75.20
2019-04-20T00:36:29.121Z,75.40
2019-04-20T00:39:01.326Z,75.60
2019-04-20T00:41:28.065Z,76.30
2019-04-20T00:43:57.841Z,76.40
2019-04-20T00:46:34.030Z,76.30
2019-04-20T00:49:08.891Z,76.50
2019-04-20T00:51:46.638Z,76.40
2019-04-20T00:53:59.756Z,75.60
2019-04-20T00:56:28.757Z,74.60
2019-04-20T00:59:09.172Z,74.40
2019-04-20T01:01:47.551Z,74.20
2019-04-20T01:04:29.973Z,74.00
2019-04-20T01:06:47.363Z,73.50
2019-04-20T01:09:01.454Z,72.90
2019-04-20T01:11:35.478Z,72.10
2019-04-20T01:14:04.659Z,72.00
2019-04-20T01:16:41.243Z,72.30
2019-04-20T01:19:00.921Z,72.50
2019-04-20T01:21:31.712Z,73.10
2019-04-20T01:24:03.557Z,73.60
2019-04-20T01:26:55.146Z,73.80
2019-04-20T01:29:29.226Z,73.80
2019-04-20T01:32:01.052Z,74.00
2019-04-20T01:34:37.908Z,73.70
2019-04-20T01:37:21.195Z,73.60
2019-04-20T01:39:45.177Z,73.60
2019-04-20T01:42:10.837Z,74.00
2019-04-20T01:44:44.069Z,74.40
2019-04-20T01:47:12.103Z,74.80
2019-04-20T01:49:41.913Z,75.40
2019-04-20T01:52:18.894Z,75.10
2019-04-20T01:54:56.704Z,74.90
2019-04-20T01:57:30.009Z,74.50
2019-04-20T02:00:10.678Z,75.00
2019-04-20T02:02:35.483Z,74.50
2019-04-20T02:05:11.540Z,75.40
2019-04-20T02:07:38.749Z,75.60
2019-04-20T02:10:08.852Z,75.60
2019-04-20T02:12:37.944Z,76.10
2019-04-20T02:15:13.055Z,77.70
2019-04-20T02:17:43.110Z,78.00
2019-04-20T02:20:31.595Z,78.60
2019-04-20T02:22:55.095Z,79.10
2019-04-20T02:25:10.069Z,78.70
2019-04-20T02:27:47.113Z,78.70
2019-04-20T02:30:40.966Z,77.80
2019-04-20T02:33:40.188Z,76.60
2019-04-20T02:35:53.969Z,77.80
2019-04-20T02:40:52.612Z,78.70
2019-04-20T02:43:15.102Z,78.90
2019-04-20T02:45:44.232Z,79.40
2019-04-20T02:48:13.928Z,79.80
2019-04-20T02:50:56.234Z,80.20
2019-04-20T02:55:58.496Z,82.10
2019-04-20T02:58:15.410Z,83.40
2019-04-20T03:00:38.629Z,84.30
2019-04-20T03:03:00.074Z,84.00
2019-04-20T03:05:29.795Z,83.10
2019-04-20T03:08:10.085Z,82.30
2019-04-20T03:10:46.405Z,82.90
2019-04-20T03:13:09.793Z,83.50
2019-04-20T03:15:38.242Z,83.80
2019-04-20T03:18:12.060Z,84.10
2019-04-20T03:20:44.258Z,84.00
2019-04-20T03:23:26.817Z,83.80
2019-04-20T03:26:00.717Z,84.30
2019-04-20T03:28:45.662Z,84.00
2019-04-20T03:31:45.119Z,82.90
2019-04-20T03:34:23.090Z,83.00
2019-04-20T03:36:34.667Z,82.90
2019-04-20T03:38:56.096Z,82.80
2019-04-20T03:41:18.497Z,82.90
2019-04-20T03:43:37.088Z,82.50
2019-04-20T03:46:09.602Z,82.80
2019-04-20T03:48:54.669Z,82.50
2019-04-20T03:51:37.648Z,82.20
2019-04-20T03:54:02.860Z,82.60
2019-04-20T03:56:54.526Z,82.90
2019-04-20T03:59:34.879Z,81.70
2019-04-20T04:02:22.876Z,81.30
2019-04-20T04:04:39.000Z,80.90
2019-04-20T04:06:53.919Z,80.60
2019-04-20T04:09:28.651Z,80.40
2019-04-20T04:11:58.535Z,80.80
2019-04-20T04:14:19.728Z,80.90
2019-04-20T04:16:52.987Z,80.20
2019-04-20T04:19:25.230Z,81.90
2019-04-20T04:22:04.182Z,82.00
2019-04-20T04:24:30.477Z,82.10
2019-04-20T04:27:03.598Z,82.40
2019-04-20T04:29:45.946Z,83.40
2019-04-20T04:32:12.772Z,83.10
2019-04-20T04:34:40.582Z,83.40
2019-04-20T04:37:10.714Z,83.10
2019-04-20T04:39:46.969Z,82.60
2019-04-20T04:42:20.657Z,82.30
2019-04-20T04:44:35.730Z,82.20
2019-04-20T04:46:57.629Z,82.60
2019-04-20T04:49:28.491Z,82.40
2019-04-20T04:51:59.315Z,82.20
2019-04-20T04:54:31.202Z,82.00
2019-04-20T04:56:52.489Z,80.90
2019-04-20T04:59:21.440Z,79.90
2019-04-20T05:01:53.416Z,80.00
2019-04-20T05:04:48.540Z,79.70
2019-04-20T05:07:05.189Z,79.70
2019-04-20T05:09:23.717Z,78.60
2019-04-20T05:12:02.064Z,78.30
2019-04-20T05:14:37.465Z,77.70
2019-04-20T05:17:07.788Z,77.20
2019-04-20T05:19:41.239Z,76.90
2019-04-20T05:22:14.923Z,76.80
2019-04-20T05:24:43.574Z,76.80
2019-04-20T05:27:36.423Z,75.40
2019-04-20T05:29:44.905Z,75.30
2019-04-20T05:32:19.700Z,74.00
2019-04-20T05:35:06.257Z,73.70
2019-04-20T05:37:54.604Z,73.20
2019-04-20T05:40:04.403Z,72.10
2019-04-20T05:45:07.558Z,70.40
2019-04-20T05:47:38.536Z,70.40
2019-04-20T05:50:01.210Z,70.50
2019-04-20T05:55:10.242Z,69.70
2019-04-20T05:57:42.680Z,69.40
2019-04-20T06:00:13.852Z,69.50
2019-04-20T06:02:42.155Z,69.90
2019-04-20T06:05:27.831Z,69.30
2019-04-20T06:07:43.455Z,68.90
2019-04-20T06:10:16.793Z,68.90
2019-04-20T06:12:42.768Z,68.50
2019-04-20T06:15:14.510Z,69.40
2019-04-20T06:18:05.148Z,68.20
2019-04-20T06:23:33.283Z,65.60
2019-04-20T06:26:30.499Z,64.70
2019-04-20T06:28:35.402Z,63.70
2019-04-20T06:31:10.649Z,64.60
2019-04-20T06:34:16.291Z,63.90
2019-04-20T06:36:38.099Z,64.20
2019-04-20T06:39:13.778Z,63.00
2019-04-20T06:41:54.294Z,61.30
2019-04-20T06:44:14.758Z,61.30
2019-04-20T06:46:45.343Z,61.60
2019-04-20T06:49:16.901Z,60.60
2019-04-20T06:51:47.350Z,59.10
2019-04-20T06:54:21.810Z,59.00
2019-04-20T06:57:00.156Z,59.10
2019-04-20T06:59:32.214Z,59.00
2019-04-20T07:04:48.613Z,59.70
2019-04-20T07:09:42.056Z,58.00
2019-04-20T07:11:56.987Z,56.80
2019-04-20T07:14:25.767Z,57.00
2019-04-20T07:17:10.949Z,56.80
2019-04-20T07:19:36.520Z,56.20
2019-04-20T07:24:56.445Z,56.30
2019-04-20T07:27:19.685Z,54.90
2019-04-20T07:29:52.234Z,54.60
2019-04-20T07:32:13.209Z,54.70
2019-04-20T07:34:53.916Z,54.20
2019-04-20T07:37:51.821Z,53.70
2019-04-20T07:39:53.799Z,53.50
2019-04-20T07:42:28.713Z,52.30
2019-04-20T07:44:58.034Z,52.30
2019-04-20T07:47:32.926Z,51.00
2019-04-20T07:49:49.863Z,50.90
2019-04-20T07:52:04.033Z,51.50
2019-04-20T07:55:13.628Z,50.30
2019-04-20T07:57:22.173Z,50.40
2019-04-20T07:59:50.951Z,51.50
2019-04-20T08:02:48.824Z,52.70
2019-04-20T08:05:10.598Z,50.90
2019-04-20T08:07:39.125Z,50.70
2019-04-20T08:10:04.386Z,51.10
2019-04-20T08:12:55.910Z,51.40
2019-04-20T08:15:32.486Z,50.70
2019-04-20T08:17:56.438Z,51.00
2019-04-20T08:20:22.042Z,50.10
2019-04-20T08:22:52.686Z,50.40
2019-04-20T08:25:16.670Z,50.10
2019-04-20T08:27:50.839Z,50.50
2019-04-20T08:30:56.047Z,50.40
2019-04-20T08:33:28.616Z,52.60
2019-04-20T08:36:04.963Z,52.00
2019-04-20T08:39:08.164Z,51.80
2019-04-20T08:40:59.609Z,52.80
2019-04-20T08:43:43.848Z,53.00
2019-04-20T08:45:58.801Z,53.20
2019-04-20T08:48:34.772Z,52.40
2019-04-20T08:51:03.490Z,51.50
2019-04-20T08:53:30.724Z,52.80
2019-04-20T08:55:56.769Z,53.00
2019-04-20T08:58:11.934Z,53.40
2019-04-20T09:00:46.820Z,53.10
2019-04-20T09:03:19.392Z,51.90
2019-04-20T09:05:54.763Z,50.60
2019-04-20T09:08:21.165Z,50.00
2019-04-20T09:11:03.913Z,50.10
2019-04-20T09:13:25.513Z,49.80
2019-04-20T09:15:43.066Z,48.50
2019-04-20T09:18:28.306Z,47.00
2019-04-20T09:20:58.468Z,47.70
2019-04-20T09:23:36.378Z,46.90
2019-04-20T09:26:10.181Z,48.30
2019-04-20T09:28:31.900Z,45.60
2019-04-20T09:31:13.232Z,45.90
2019-04-20T09:33:48.686Z,47.60
2019-04-20T09:36:18.226Z,46.30
2019-04-20T09:38:59.854Z,44.20
2019-04-20T09:41:47.046Z,44.10
2019-04-20T09:43:56.130Z,44.50
2019-04-20T09:46:24.719Z,44.10
2019-04-20T09:48:57.945Z,44.70
2019-04-20T09:51:40.166Z,43.50
2019-04-20T09:54:04.038Z,42.80
2019-04-20T09:56:35.692Z,42.70
2019-04-20T09:59:12.162Z,42.90
2019-04-20T10:01:33.928Z,44.00
2019-04-20T10:03:55.071Z,43.90
2019-04-20T10:06:27.218Z,44.40
2019-04-20T10:08:56.775Z,44.50
2019-04-20T10:11:23.970Z,46.10
2019-04-20T10:13:52.436Z,45.60
2019-04-20T10:16:21.884Z,44.80
2019-04-20T10:18:53.490Z,44.80
2019-04-20T10:21:20.594Z,43.90
2019-04-20T10:23:50.285Z,44.20
2019-04-20T10:26:18.970Z,43.70
2019-04-20T10:28:47.740Z,42.20
2019-04-20T10:31:16.789Z,41.70
2019-04-20T10:33:45.933Z,41.70
2019-04-20T10:36:19.525Z,41.10
2019-04-20T10:38:48.514Z,40.90
2019-04-20T10:41:29.614Z,40.20
2019-04-20T10:43:48.982Z,40.20
2019-04-20T10:46:17.575Z,39.20
2019-04-20T10:48:50.819Z,38.90
2019-04-20T10:51:17.640Z,38.50
2019-04-20T10:53:46.516Z,36.70
2019-04-20T10:56:15.843Z,37.00
2019-04-20T10:58:45.472Z,37.00
2019-04-20T11:01:14.042Z,37.70
2019-04-20T11:03:42.809Z,36.50
2019-04-20T11:06:11.511Z,36.90
2019-04-20T11:08:40.497Z,36.00
2019-04-20T11:11:16.420Z,34.30
2019-04-20T11:13:39.439Z,33.90
2019-04-20T11:16:08.522Z,34.60
2019-04-20T11:18:37.716Z,34.50
2019-04-20T11:21:07.116Z,33.80
2019-04-20T11:23:36.257Z,33.20
2019-04-20T11:26:06.334Z,33.20
2019-04-20T11:28:34.965Z,34.00
2019-04-20T11:31:04.039Z,32.40
2019-04-20T11:33:34.131Z,32.20
2019-04-20T11:36:03.180Z,32.20
2019-04-20T11:38:33.072Z,33.20
2019-04-20T11:41:11.303Z,34.20
2019-04-20T11:43:31.849Z,33.20
2019-04-20T11:46:00.580Z,32.80
2019-04-20T11:48:29.637Z,32.90
2019-04-20T11:50:58.238Z,32.60
2019-04-20T11:53:28.285Z,33.10
2019-04-20T11:55:58.370Z,32.20
2019-04-20T11:58:27.974Z,32.60
2019-04-20T12:01:04.062Z,33.00
2019-04-20T12:03:38.054Z,32.70
2019-04-20T12:06:02.787Z,31.60
2019-04-20T12:08:29.360Z,32.60
2019-04-20T12:11:01.668Z,31.70
2019-04-20T12:13:28.987Z,31.80
2019-04-20T12:15:57.690Z,32.00
2019-04-20T12:18:27.481Z,32.30
2019-04-20T12:20:56.723Z,32.40
2019-04-20T12:23:26.474Z,32.50
2019-04-20T12:25:56.313Z,32.10
2019-04-20T12:28:25.378Z,33.00
2019-04-20T12:30:56.002Z,32.50
2019-04-20T12:33:24.415Z,32.40
2019-04-20T12:35:54.230Z,32.80
2019-04-20T12:38:23.161Z,32.20
2019-04-20T12:40:52.531Z,32.60
2019-04-20T12:43:21.205Z,32.10
2019-04-20T12:45:49.761Z,31.80
2019-04-20T12:48:19.613Z,32.10
2019-04-20T12:50:48.227Z,32.20
2019-04-20T12:53:17.083Z,31.30
2019-04-20T12:55:46.558Z,31.90
2019-04-20T12:58:16.624Z,31.20
2019-04-20T13:00:49.839Z,31.20
2019-04-20T13:03:19.386Z,30.00
2019-04-20T13:05:48.324Z,30.90
2019-04-20T13:08:21.812Z,31.80
2019-04-20T13:10:50.606Z,31.00
2019-04-20T13:13:34.440Z,30.20
2019-04-20T13:16:04.738Z,30.10
2019-04-20T13:18:35.063Z,31.30
2019-04-20T13:21:04.805Z,31.00
2019-04-20T13:23:35.045Z,30.80
2019-04-20T13:26:05.859Z,30.80
2019-04-20T13:28:34.714Z,30.00
2019-04-20T13:31:03.976Z,30.40
2019-04-20T13:33:33.530Z,30.50
2019-04-20T13:36:02.096Z,30.60
2019-04-20T13:38:31.991Z,29.90
2019-04-20T13:41:01.906Z,30.90
2019-04-20T13:43:31.997Z,30.80
2019-04-20T13:46:00.839Z,31.20
2019-04-20T13:48:30.954Z,31.20
2019-04-20T13:51:00.210Z,31.80
2019-04-20T13:53:29.713Z,32.10
2019-04-20T13:55:59.265Z,32.00
2019-04-20T13:58:45.700Z,30.90
2019-04-20T14:01:22.947Z,30.40
2019-04-20T14:03:56.684Z,30.10
2019-04-20T14:06:26.690Z,30.30
2019-04-20T14:08:55.278Z,30.00
2019-04-20T14:11:23.741Z,29.90
2019-04-20T14:13:57.986Z,29.40
2019-04-20T14:16:23.194Z,29.40
2019-04-20T14:18:53.213Z,30.30
2019-04-20T14:21:22.002Z,30.10
2019-04-20T14:24:10.956Z,29.50
2019-04-20T14:26:41.269Z,29.40
2019-04-20T14:29:10.393Z,30.00
2019-04-20T14:31:39.797Z,29.40
2019-04-20T14:34:08.821Z,29.30
2019-04-20T14:36:37.451Z,29.20
2019-04-20T14:39:07.901Z,29.00
2019-04-20T14:41:38.016Z,29.20
2019-04-20T14:44:07.953Z,29.20
2019-04-20T14:46:37.754Z,29.50
2019-04-20T14:49:06.997Z,28.80
2019-04-20T14:51:35.634Z,29.70
2019-04-20T14:54:05.436Z,29.90
2019-04-20T14:56:35.676Z,29.40
2019-04-20T14:59:09.624Z,29.10
2019-04-20T15:01:42.797Z,29.30
2019-04-20T15:04:16.697Z,29.30
2019-04-20T15:06:42.478Z,29.80
2019-04-20T15:09:12.738Z,29.50
2019-04-20T15:11:43.439Z,30.20
2019-04-20T15:14:11.711Z,29.70
2019-04-20T15:16:40.406Z,31.10
2019-04-20T15:19:11.768Z,31.80
2019-04-20T15:21:42.111Z,32.10
2019-04-20T15:24:11.355Z,32.20
2019-04-20T15:26:40.412Z,32.50
2019-04-20T15:29:10.373Z,32.10
2019-04-20T15:31:39.142Z,31.90
2019-04-20T15:34:08.835Z,32.60
2019-04-20T15:36:38.100Z,32.30
2019-04-20T15:39:07.697Z,32.10
2019-04-20T15:41:36.246Z,32.50
2019-04-20T15:44:05.026Z,31.90
2019-04-20T15:46:34.819Z,31.10
2019-04-20T15:49:04.086Z,31.10
2019-04-20T15:51:34.142Z,31.90
2019-04-20T15:54:02.873Z,32.60
2019-04-20T15:56:31.491Z,31.60
2019-04-20T15:58:59.946Z,31.30
2019-04-20T16:01:30.288Z,31.50
2019-04-20T16:04:01.474Z,32.10
2019-04-20T16:06:31.551Z,32.80
2019-04-20T16:09:02.105Z,32.60
2019-04-20T16:11:31.054Z,32.80
2019-04-20T16:14:00.199Z,32.80
2019-04-20T16:16:29.990Z,32.60
2019-04-20T16:18:59.111Z,32.80
2019-04-20T16:21:31.255Z,32.00
2019-04-20T16:24:00.979Z,32.50
2019-04-20T16:26:41.806Z,32.70
2019-04-20T16:29:11.504Z,33.70
2019-04-20T16:31:40.548Z,34.40
2019-04-20T16:34:09.948Z,34.70
2019-04-20T16:36:38.874Z,33.70
2019-04-20T16:39:09.688Z,33.40
2019-04-20T16:41:38.434Z,33.50
2019-04-20T16:44:07.238Z,33.70
2019-04-20T16:46:36.269Z,34.50
2019-04-20T16:49:05.638Z,35.00
2019-04-20T16:51:34.753Z,35.00
2019-04-20T16:54:03.771Z,33.20
2019-04-20T16:56:32.960Z,32.60
2019-04-20T16:59:08.168Z,32.60
2019-04-20T17:01:31.914Z,32.90
2019-04-20T17:04:07.132Z,32.30
2019-04-20T17:06:32.022Z,32.10
2019-04-20T17:09:01.134Z,32.20
2019-04-20T17:11:29.992Z,31.90
2019-04-20T17:14:01.630Z,32.80
2019-04-20T17:16:28.958Z,33.00
2019-04-20T17:18:57.450Z,33.10
2019-04-20T17:21:28.651Z,32.60
2019-04-20T17:23:57.567Z,33.20
2019-04-20T17:26:30.816Z,33.70
2019-04-20T17:29:04.044Z,33.60
2019-04-20T17:31:37.729Z,32.90
2019-04-20T17:34:25.293Z,32.90
2019-04-20T17:36:39.866Z,32.90
2019-04-20T17:39:11.547Z,32.60
2019-04-20T17:41:59.288Z,32.30
2019-04-20T17:44:24.797Z,31.30
2019-04-20T17:46:48.030Z,31.30
2019-04-20T17:49:21.089Z,30.80
2019-04-20T17:52:03.156Z,30.90
2019-04-20T17:54:22.381Z,31.10
2019-04-20T17:56:52.141Z,31.40
2019-04-20T17:59:22.258Z,32.00
2019-04-20T18:02:16.700Z,31.80
2019-04-20T18:05:12.707Z,32.00
2019-04-20T18:07:40.731Z,32.10
2019-04-20T18:10:06.654Z,32.00
2019-04-20T18:12:26.813Z,32.20
2019-04-20T18:15:08.192Z,32.60
2019-04-20T18:17:32.660Z,32.40
2019-04-20T18:19:58.883Z,32.20
2019-04-20T18:22:27.838Z,32.10
2019-04-20T18:25:22.357Z,32.10
2019-04-20T18:27:42.662Z,31.70
2019-04-20T18:30:10.735Z,32.20
2019-04-20T18:32:33.581Z,32.20
2019-04-20T18:35:08.409Z,32.50
2019-04-20T18:37:36.754Z,33.00
2019-04-20T18:40:12.423Z,33.60
2019-04-20T18:42:43.440Z,33.20
2019-04-20T18:45:26.782Z,33.20
2019-04-20T18:48:02.733Z,33.80
2019-04-20T18:50:20.551Z,33.70
2019-04-20T18:52:42.027Z,34.40
2019-04-20T18:55:17.309Z,34.90
2019-04-20T18:57:44.426Z,35.10
2019-04-20T19:00:20.119Z,35.60
2019-04-20T19:02:48.929Z,35.70
2019-04-20T19:05:15.846Z,36.10
2019-04-20T19:07:53.907Z,36.50
2019-04-20T19:10:24.789Z,37.00
2019-04-20T19:12:56.720Z,36.90
2019-04-20T19:15:46.938Z,37.00
2019-04-20T19:18:22.067Z,37.50
2019-04-20T19:20:41.255Z,37.60
2019-04-20T19:23:10.319Z,37.60
2019-04-20T19:25:40.930Z,38.00
2019-04-20T19:28:10.387Z,38.50
2019-04-20T19:30:47.012Z,38.60
2019-04-20T19:33:27.426Z,38.90
2019-04-20T19:35:50.060Z,39.20
2019-04-20T19:38:17.390Z,39.70
2019-04-20T19:40:50.914Z,39.80
2019-04-20T19:43:20.748Z,40.00
2019-04-20T19:46:25.573Z,40.30
2019-04-20T19:48:24.046Z,40.50
2019-04-20T19:51:06.853Z,40.80
2019-04-20T19:53:30.462Z,41.10
2019-04-20T19:55:56.674Z,41.30
2019-04-20T19:58:26.503Z,41.70
2019-04-20T20:00:48.136Z,42.20
2019-04-20T20:03:15.553Z,42.40
2019-04-20T20:05:48.006Z,42.90
2019-04-20T20:08:19.698Z,43.10
2019-04-20T20:10:45.834Z,43.50
2019-04-20T20:13:14.992Z,43.60
2019-04-20T20:15:45.074Z,43.80
2019-04-20T20:18:31.753Z,44.60
2019-04-20T20:21:00.867Z,44.20
2019-04-20T20:23:14.346Z,44.70
2019-04-20T20:25:46.456Z,44.70
2019-04-20T20:28:24.102Z,44.90
2019-04-20T20:30:58.201Z,45.10
2019-04-20T20:33:27.911Z,45.40
2019-04-20T20:35:51.881Z,45.60
2019-04-20T20:38:23.104Z,45.60
2019-04-20T20:40:55.250Z,45.90
2019-04-20T20:43:22.742Z,46.10
2019-04-20T20:46:01.327Z,46.20
2019-04-20T20:48:29.811Z,46.30
2019-04-20T20:51:05.235Z,46.20
2019-04-20T20:53:21.834Z,45.80
2019-04-20T20:55:48.546Z,45.70
2019-04-20T20:58:25.180Z,45.80
2019-04-20T21:00:55.864Z,45.60
2019-04-20T21:03:23.711Z,45.60
2019-04-20T21:05:47.351Z,46.10
2019-04-20T21:08:15.998Z,45.80
2019-04-20T21:10:46.397Z,45.90
2019-04-20T21:13:15.550Z,46.30
2019-04-20T21:15:52.274Z,46.40
2019-04-20T21:18:33.315Z,46.70
2019-04-20T21:21:02.223Z,46.30
2019-04-20T21:23:28.333Z,46.20
2019-04-20T21:26:04.536Z,46.10
2019-04-20T21:28:36.097Z,46.20
2019-04-20T21:31:08.099Z,46.30
2019-04-20T21:33:36.903Z,46.20
2019-04-20T21:36:07.086Z,46.20
2019-04-20T21:38:40.495Z,46.30
2019-04-20T21:41:16.511Z,46.30
2019-04-20T21:43:44.460Z,46.80
2019-04-20T21:46:13.870Z,47.10
2019-04-20T21:48:58.807Z,47.10
2019-04-20T21:51:27.459Z,48.10
2019-04-20T21:54:03.780Z,47.50
2019-04-20T21:56:33.541Z,47.60
2019-04-20T21:59:04.352Z,47.80
2019-04-20T22:01:38.948Z,47.80
2019-04-20T22:04:02.783Z,48.10
2019-04-20T22:06:32.040Z,48.70
2019-04-20T22:09:02.460Z,49.10
2019-04-20T22:11:31.584Z,49.40
2019-04-20T22:14:03.165Z,49.70
2019-04-20T22:16:36.562Z,49.60
2019-04-20T22:19:16.029Z,49.50
2019-04-20T22:21:46.632Z,49.90
2019-04-20T22:24:15.216Z,50.20
2019-04-20T22:26:41.528Z,50.30
2019-04-20T22:29:02.465Z,50.60
2019-04-20T22:31:31.914Z,50.90
2019-04-20T22:34:06.398Z,50.70
2019-04-20T22:36:36.650Z,51.10
2019-04-20T22:39:09.595Z,50.90
2019-04-20T22:41:40.768Z,51.60
2019-04-20T22:44:15.169Z,50.90
2019-04-20T22:46:41.976Z,50.90
2019-04-20T22:49:26.641Z,51.40
2019-04-20T22:51:52.207Z,51.30
2019-04-20T22:54:29.743Z,52.20
2019-04-20T22:56:54.015Z,53.00
2019-04-20T22:59:16.477Z,55.50
2019-04-20T23:01:48.592Z,55.80
2019-04-20T23:04:12.746Z,55.20
2019-04-20T23:06:46.264Z,54.60
2019-04-20T23:09:14.692Z,54.90
2019-04-20T23:11:42.373Z,55.10
2019-04-20T23:14:11.104Z,54.70
2019-04-20T23:16:43.966Z,55.50
2019-04-20T23:19:10.140Z,56.50
2019-04-20T23:21:40.028Z,57.30
2019-04-20T23:24:11.234Z,57.80
2019-04-20T23:26:42.091Z,58.10
2019-04-20T23:29:09.466Z,57.90
2019-04-20T23:31:39.023Z,58.00
2019-04-20T23:34:14.367Z,57.90
2019-04-20T23:36:42.488Z,58.60
2019-04-20T23:39:08.705Z,59.70
2019-04-20T23:41:37.717Z,59.70
2019-04-20T23:44:15.201Z,60.70
2019-04-20T23:46:43.287Z,62.50
2019-04-20T23:49:29.055Z,63.70
2019-04-20T23:52:11.928Z,65.00
2019-04-20T23:54:26.152Z,66.60
2019-04-20T23:56:53.571Z,67.20
2019-04-20T23:59:30.385Z,67.60
